Station: Central Arnhem Plateau

  Atmospheric Gas Attenuation - ITU Rec 676-11   --------------- db/100km ---------------
Date Time Temp RH % AH g/m3 Dew Point Wind Direction Speed kph Gust kph Barometer mB Rainfall Since 9am 24GHz 47GHz 76GHz 122GHz 134GHz 241GHz
11 21:50 26.3 58 14.36 17.6 0 0 1010.6 0 31.0 31.2 55.5 146.5 154.4 535.8
11 21:40 26.2 60 14.77 17.8 0 2 1010.6 0 31.9 31.9 57.2 151.2 160.1 555.7
11 21:30 26.6 58 14.6 17.7 6 7 1010.6 0 31.5 31.5 56.3 148.5 157.0 544.9
11 21:20 26.9 57 14.59 17.7 6 6 1010.4 0 31.5 31.3 56.0 147.8 156.2 542.3
11 21:10 27.3 54 14.13 17.2 4 6 1010.3 0 30.5 30.4 53.8 142.2 149.4 518.3
11 21:00 28.1 51 13.95 17 6 7 1010.4 0 30.1 29.9 52.6 138.8 145.5 505.0
11 20:50 28.3 50 13.82 16.9 6 7 1010.2 0 29.8 29.6 52.0 137.1 143.5 497.9
11 20:40 28.2 49 13.47 16.5 7 7 1010.1 0 29.0 29.1 50.7 133.7 139.2 482.9
11 20:30 28.5 48 13.42 16.4 7 9 1010 0 28.9 28.9 50.3 132.6 138.0 478.8
11 20:20 28.7 47 13.28 16.3 7 9 1009.8 0 28.6 28.6 49.6 130.8 135.9 471.4
11 20:10 28.8 47 13.36 16.4 7 9 1009.7 0 28.8 28.7 49.8 131.5 136.7 474.3
11 20:00 29 46 13.21 16.2 9 11 1009.6 0 28.5 28.4 49.1 129.6 134.5 466.5
11 19:50 29.3 44 12.85 16.1 9 11 1009.6 0 27.7 27.8 47.6 125.5 129.5 449.3
11 19:40 29.5 44 12.99 16 7 7 1009.5 0 28.0 27.9 48.0 126.6 130.9 454.1
11 19:30 29.6 44 13.06 16.1 11 11 1009.2 0 28.1 28.0 48.2 127.1 131.6 456.4
11 19:20 29.6 43 12.76 15.7 9 9 1009 0 27.5 27.5 47.1 124.1 127.9 443.6
11 19:10 29.9 42 12.67 15.6 7 9 1008.8 0 27.3 27.3 46.5 122.7 126.3 438.0
11 19:00 30.2 41 12.57 15.5 11 13 1008.7 0 27.0 27.0 46.0 121.3 124.6 432.2
11 18:50 30.4 39 12.09 14.9 11 13 1008.5 0 26.0 26.3 44.1 116.3 118.6 411.1
11 18:40 30.8 37 11.72 14.8 13 17 1008.4 0 25.2 25.6 42.6 112.3 113.6 393.9
11 18:30 31 37 11.84 14.6 13 17 1008.5 0 25.5 25.7 42.9 113.1 114.8 397.9
11 18:20 31.4 35 11.45 14.1 17 20 1008.3 0 24.7 25.1 41.3 108.9 109.7 380.2
11 18:10 31.8 34 11.36 14 17 20 1008.2 0 24.4 24.8 40.8 107.5 108.1 374.7
11 18:00 32.3 33 11.32 14.4 17 20 1008.2 0 24.3 24.6 40.4 106.5 107.0 370.9
11 17:50 32.7 32 11.22 14.3 15 17 1008.1 0 24.1 24.4 39.9 105.1 105.4 365.1
11 17:40 32.8 31 10.92 13.9 17 19 1008.1 0 23.5 23.9 38.8 102.3 101.9 353.1
11 17:30 33 32 11.4 14.1 15 20 1008.1 0 24.5 24.6 40.4 106.3 107.0 370.8
11 17:20 33.4 30 10.91 13.5 17 20 1007.9 0 23.4 23.8 38.5 101.4 101.0 350.1
11 17:10 33.3 29 10.49 12.9 20 24 1007.7 0 22.6 23.2 37.2 97.8 96.6 334.5
11 17:00 33.7 29 10.72 13.2 19 30 1007.7 0 23.0 23.4 37.8 99.4 98.6 341.5
11 16:50 34 29 10.89 13.5 15 20 1007.5 0 23.4 23.6 38.2 100.5 100.0 346.7
11 16:40 34.1 28 10.57 13.5 17 17 1007.6 0 22.7 23.1 37.1 97.6 96.5 334.2
11 16:30 33.8 27 10.03 12.2 22 32 1007.7 0 21.6 22.5 35.5 93.3 91.1 315.3
11 16:20 34.4 28 10.73 13.3 24 28 1007.5 0 23.0 23.3 37.5 98.6 97.8 339.0
11 16:10 34 29 10.89 13.5 20 24 1007.5 0 23.4 23.6 38.2 100.5 100.0 346.7
11 16:00 33.2 29 10.44 12.8 20 26 1007.4 0 22.5 23.2 37.0 97.5 96.1 332.9
11 15:50 34.5 27 10.4 13.3 22 24 1007.4 0 22.3 22.8 36.3 95.6 94.2 326.2
11 15:40 34.6 28 10.85 13.4 13 15 1007.4 0 23.2 23.4 37.8 99.4 98.9 342.6
11 15:30 34.8 28 10.96 14.1 20 32 1007.3 0 23.5 23.5 38.0 100.1 99.8 345.9
11 15:20 34.3 28 10.68 13.2 17 24 1007.5 0 22.9 23.2 37.3 98.3 97.4 337.5
11 15:10 34.4 29 11.12 13.8 15 17 1007.5 0 23.8 23.8 38.7 102.0 102.0 353.7
11 15:00 34.3 29 11.06 13.7 19 24 1007.6 0 23.7 23.7 38.6 101.6 101.5 351.9
11 14:50 34.1 28 10.57 13 24 30 1007.7 0 22.7 23.1 37.1 97.6 96.5 334.2
11 14:40 33.8 30 11.14 13.8 17 17 1007.9 0 23.9 24.0 39.1 103.0 103.0 357.2
11 14:30 34.3 30 11.44 14.7 20 28 1008.2 0 24.5 24.3 39.9 105.0 105.7 366.5
11 14:20 33.9 33 12.32 15.4 15 20 1008.2 0 26.3 25.6 43.1 113.5 116.1 402.8
11 14:10 33.6 31 11.39 14.6 22 28 1008.2 0 24.4 24.4 40.0 105.5 106.1 367.7
11 14:00 33.9 33 12.32 15.4 13 20 1008.4 0 26.3 25.6 43.1 113.6 116.1 402.8
11 13:50 33.4 32 11.64 14.9 13 17 1008.4 0 24.9 24.8 41.0 108.0 109.1 378.4
11 13:40 34.4 31 11.88 15.3 15 20 1008.6 0 25.4 24.9 41.3 108.9 110.5 383.2
11 13:30 33.5 34 12.43 15.5 20 28 1008.7 0 26.5 25.9 43.7 115.2 117.9 409.3
11 13:20 32.5 36 12.48 15.5 7 11 1008.9 0 26.7 26.2 44.4 117.1 120.0 416.4
11 13:10 33.1 33 11.81 15.1 15 19 1009 0 25.3 25.1 41.8 110.0 111.5 386.7
11 13:00 33.7 34 12.56 15.7 11 20 1009.2 0 26.8 26.0 44.0 116.1 119.2 413.6
11 12:50 33.8 33 12.26 15.7 13 15 1009.2 0 26.2 25.6 43.0 113.2 115.6 401.2
11 12:40 33 33 11.75 14.6 7 9 1009.5 0 25.2 25.1 41.6 109.7 111.0 385.0
11 12:30 33.6 34 12.5 15.6 11 17 1009.6 0 26.7 26.0 43.9 115.8 118.7 411.9
11 12:20 33.3 32 11.58 14.8 13 19 1009.9 0 24.8 24.8 40.9 107.8 108.7 377.0
11 12:10 32.7 34 11.92 14.8 13 15 1010 0 25.5 25.4 42.4 111.7 113.4 393.3
11 12:00 33.1 35 12.53 16 6 15 1010.1 0 26.8 26.2 44.3 116.8 119.8 415.8
11 11:50 32.4 36 12.42 15.4 11 13 1010.2 0 26.6 26.2 44.3 116.8 119.6 414.9
11 11:40 31.8 43 14.37 17.7 7 9 1010.3 0 30.7 29.3 51.8 136.8 144.0 500.1
11 11:30 32.1 42 14.26 17.6 11 15 1010.5 0 30.4 29.0 51.2 135.2 142.1 493.5
11 11:20 32 42 14.18 17.5 11 15 1010.6 0 30.3 29.0 51.0 134.5 141.3 490.8
11 11:10 31.9 43 14.44 18.1 7 11 1010.7 0 30.8 29.4 52.0 137.3 144.7 502.6
11 11:00 31.3 46 14.96 18.3 6 11 1010.8 0 31.9 30.4 54.4 143.7 152.4 529.3
11 10:50 30.9 48 15.28 18.6 2 6 1010.8 0 32.6 31.0 55.9 147.8 157.2 546.3
11 10:40 30.6 51 15.98 19.6 7 9 1010.8 0 34.1 32.3 58.9 155.7 167.0 580.2
11 10:30 30 52 15.77 19.1 6 11 1011.1 0 33.7 32.2 58.5 154.7 165.5 575.0
11 10:20 30 56 16.99 20.5 9 9 1011.1 0 36.2 34.2 63.6 168.0 181.9 632.1
11 10:10 29.9 59 17.8 21 0 0 1011.2 0 38.0 35.6 67.1 177.4 193.3 671.9
11 10:00 29 62 17.81 21.2 9 13 1011.4 0 38.1 36.0 67.9 179.6 195.8 680.4
11 09:50 29.1 64 18.49 21.8 9 13 1011.2 0 39.5 37.1 70.8 187.2 205.2 713.1
11 09:40 28.7 67 18.93 22 11 11 1011.2 0 40.4 38.1 73.1 193.4 212.6 739.0
11 09:30 28.3 68 18.8 21.8 9 13 1011.4 0 40.2 38.1 72.9 192.9 211.9 736.4
11 09:20 27.5 71 18.79 21.8 9 11 1011.2 0 40.3 38.4 73.6 194.7 214.0 743.5
11 09:10 27.4 73 19.21 22.1 7 9 1011.2 0 41.2 39.2 75.6 200.1 220.5 766.3
11 09:00 27.1 74 19.15 22.1 9 13 1011.3 0 41.1 39.2 75.7 200.2 220.5 766.2
11 08:50 26.8 76 19.34 22.2 11 11 1011.1 0 41.5 39.7 76.8 203.3 224.2 779.1
11 08:40 26.4 77 19.17 22 11 13 1011.1 0 41.2 39.6 76.4 202.2 222.9 774.3
11 08:30 26.1 76 18.61 21.5 11 15 1011.1 0 40.0 38.7 74.1 196.1 215.3 747.8
11 08:20 26.3 78 19.31 22.2 11 13 1010.9 0 41.5 39.9 77.2 204.2 225.3 782.6
11 08:10 25.9 77 18.64 21.6 9 9 1011 0 40.1 38.8 74.5 197.0 216.3 751.3
11 08:00 25.5 78 18.47 21.4 4 7 1011.1 0 39.8 38.7 74.1 195.9 214.9 746.4
11 07:50 24.6 79 17.78 20.7 6 6 1010.9 0 38.4 37.8 71.7 189.7 207.0 718.8
11 07:40 24.3 81 17.92 20.8 0 0 1010.9 0 38.7 38.2 72.7 192.2 209.9 729.0
11 07:30 24 83 18.06 20.9 0 0 1010.9 0 39.1 38.6 73.6 194.7 212.9 739.3
11 07:20 23.5 84 17.76 20.6 0 0 1010.7 0 38.5 38.3 72.7 192.2 209.7 728.1
11 07:10 23.2 85 17.67 20.5 0 0 1010.5 0 38.3 38.3 72.5 191.8 209.1 726.1
11 07:00 22.9 86 17.57 20.4 0 0 1010.5 0 38.1 38.2 72.4 191.3 208.5 723.7
11 06:50 22.6 86 17.28 20.1 0 0 1010.2 0 37.6 37.8 71.3 188.4 204.8 710.9
11 06:40 22.5 86 17.18 20 0 0 1010.1 0 37.3 37.6 70.9 187.4 203.5 706.5
11 06:30 22.5 87 17.38 20.2 0 0 1010.1 0 37.8 38.0 71.8 189.9 206.6 717.1
11 06:20 22.5 87 17.38 20.2 0 0 1009.9 0 37.8 38.0 71.8 189.9 206.6 717.0
11 06:10 22.3 87 17.18 20 0 0 1009.9 0 37.4 37.7 71.1 187.9 204.1 708.3
11 06:00 22.1 88 17.18 20 0 4 1009.9 0 37.4 37.8 71.2 188.4 204.6 710.2
11 05:50 22.1 88 17.18 20 4 6 1009.8 0 37.4 37.8 71.2 188.4 204.6 710.1
11 05:40 22.2 87 17.08 19.9 6 7 1009.7 0 37.2 37.6 70.7 186.9 202.8 703.8
11 04:50 22.9 86 17.57 20.4 6 6 1009.3 0 38.1 38.1 72.3 191.1 208.3 723.1
11 04:40 22.7 86 17.37 20.2 6 6 1009.3 0 37.7 37.9 71.5 189.2 205.8 714.3

Last Refresh: 11-Apr-2021 22:00:43

Bureau of Meteorology